Terminal Aerodrome Forecast
Issued by NWS

Home | Current Version | Previous Version | Text Only | Print | Product List | Glossary On
Versions: 1 2 3 4 5 6 7 8 9 10 11 12 13 14
000
FTUS46 KSGX 012327
TAFONT
TAF
KONT 012327Z 0200/0306 26012KT P6SM BKN250
     FM020400 25006KT P6SM SCT250
     FM021000 VRB04KT 5SM BR BKN008
     FM021500 VRB04KT 4SM HZ SCT007
     FM022000 25012KT P6SM SKC
     FM030400 25006KT P6SM SCT250=

USA.gov is the U.S. government's official web portal to all federal, state and local government web resources and services.